createdAt,value
2019-01-11T00:00:01.543Z,5.67
2019-01-11T00:02:33.322Z,6.33
2019-01-11T00:05:01.651Z,5.42
2019-01-11T00:07:29.969Z,10.87
2019-01-11T00:09:58.405Z,8.53
2019-01-11T00:12:26.757Z,6.63
2019-01-11T00:14:55.167Z,8.00
2019-01-11T00:17:23.511Z,5.13
2019-01-11T00:19:51.886Z,5.60
2019-01-11T00:22:20.205Z,6.17
2019-01-11T00:24:48.551Z,4.70
2019-01-11T00:27:17.322Z,5.47
2019-01-11T00:29:45.737Z,6.80
2019-01-11T00:32:14.269Z,4.77
2019-01-11T00:34:42.680Z,3.93
2019-01-11T00:37:11.253Z,5.35
2019-01-11T00:39:39.542Z,5.63
2019-01-11T00:42:07.902Z,4.20
2019-01-11T00:44:36.383Z,4.80
2019-01-11T00:47:04.762Z,4.33
2019-01-11T00:49:33.069Z,7.83
2019-01-11T00:52:01.421Z,3.80
2019-01-11T00:54:29.770Z,4.10
2019-01-11T00:56:58.222Z,5.20
2019-01-11T00:59:26.548Z,6.72
2019-01-11T01:01:54.893Z,4.22
2019-01-11T01:04:23.223Z,9.93
2019-01-11T01:06:51.615Z,6.63
2019-01-11T01:09:20.175Z,6.60
2019-01-11T01:11:48.589Z,4.83
2019-01-11T01:14:17.444Z,6.13
2019-01-11T01:16:45.789Z,10.40
2019-01-11T01:19:19.896Z,6.67
2019-01-11T01:21:44.766Z,6.23
2019-01-11T01:24:13.581Z,7.10
2019-01-11T01:26:41.956Z,7.30
2019-01-11T01:29:10.367Z,8.40
2019-01-11T01:31:38.760Z,8.17
2019-01-11T01:34:07.268Z,7.63
2019-01-11T01:36:35.608Z,12.43
2019-01-11T01:39:07.203Z,8.00
2019-01-11T01:41:35.737Z,7.67
2019-01-11T01:44:04.372Z,20.80
2019-01-11T01:46:32.779Z,9.13
2019-01-11T01:49:01.245Z,10.40
2019-01-11T01:51:29.549Z,8.43
2019-01-11T01:53:57.978Z,7.70
2019-01-11T01:56:26.322Z,6.00
2019-01-11T01:58:54.629Z,7.47
2019-01-11T02:01:23.131Z,9.33
2019-01-11T02:03:51.459Z,6.12
2019-01-11T02:06:20.516Z,8.95
2019-01-11T02:08:48.849Z,6.00
2019-01-11T02:11:17.352Z,8.30
2019-01-11T02:13:45.705Z,13.13
2019-01-11T02:16:14.438Z,7.90
2019-01-11T02:18:42.785Z,9.17
2019-01-11T02:21:11.186Z,7.93
2019-01-11T02:23:39.528Z,7.93
2019-01-11T02:26:07.905Z,9.20
2019-01-11T02:28:36.285Z,10.80
2019-01-11T02:31:04.742Z,8.53
2019-01-11T02:33:33.090Z,7.43
2019-01-11T02:36:01.402Z,5.70
2019-01-11T02:38:29.736Z,7.67
2019-01-11T02:40:58.069Z,10.00
2019-01-11T02:43:26.431Z,9.50
2019-01-11T02:45:54.761Z,8.55
2019-01-11T02:48:23.278Z,10.18
2019-01-11T02:50:51.698Z,9.60
2019-01-11T02:53:20.051Z,9.57
2019-01-11T02:55:48.905Z,8.30
2019-01-11T02:58:17.289Z,11.03
2019-01-11T03:00:45.658Z,9.70
2019-01-11T03:03:14.021Z,11.00
2019-01-11T03:05:42.351Z,11.33
2019-01-11T03:08:10.778Z,7.17
2019-01-11T03:10:39.106Z,15.37
2019-01-11T03:13:07.487Z,12.77
2019-01-11T03:15:35.849Z,12.30
2019-01-11T03:18:04.315Z,10.80
2019-01-11T03:20:32.675Z,10.27
2019-01-11T03:23:01.125Z,12.50
2019-01-11T03:25:29.551Z,11.05
2019-01-11T03:27:57.877Z,9.57
2019-01-11T03:30:26.300Z,11.00
2019-01-11T03:32:54.629Z,10.03
2019-01-11T03:35:23.067Z,8.88
2019-01-11T03:37:51.792Z,9.40
2019-01-11T03:40:21.477Z,8.17
2019-01-11T03:42:49.925Z,10.80
2019-01-11T03:45:20.274Z,9.17
2019-01-11T03:47:48.751Z,10.10
2019-01-11T03:50:18.564Z,9.90
2019-01-11T03:52:46.974Z,10.50
2019-01-11T03:55:15.767Z,9.50
2019-01-11T03:57:44.346Z,15.30
2019-01-11T04:00:16.258Z,11.43
2019-01-11T04:02:44.564Z,12.33
2019-01-11T04:05:13.684Z,10.77
2019-01-11T04:07:42.119Z,10.40
2019-01-11T04:10:16.093Z,18.20
2019-01-11T04:12:44.575Z,10.93
2019-01-11T04:15:17.053Z,11.20
2019-01-11T04:17:47.507Z,13.88
2019-01-11T04:20:17.813Z,8.77
2019-01-11T04:22:48.165Z,15.30
2019-01-11T04:25:18.945Z,12.50
2019-01-11T04:27:47.425Z,12.40
2019-01-11T04:30:16.722Z,13.60
2019-01-11T04:32:45.052Z,11.22
2019-01-11T04:35:13.677Z,20.80
2019-01-11T04:37:42.041Z,13.83
2019-01-11T04:40:12.674Z,11.67
2019-01-11T04:42:40.998Z,13.40
2019-01-11T04:45:10.415Z,12.47
2019-01-11T04:47:38.717Z,17.27
2019-01-11T04:50:10.067Z,12.30
2019-01-11T04:52:38.468Z,13.40
2019-01-11T04:55:07.344Z,15.03
2019-01-11T04:57:35.852Z,20.03
2019-01-11T05:00:07.338Z,19.60
2019-01-11T05:02:35.678Z,17.30
2019-01-11T05:05:05.903Z,16.73
2019-01-11T05:07:34.385Z,16.50
2019-01-11T05:10:04.293Z,29.83
2019-01-11T05:12:32.706Z,19.20
2019-01-11T05:15:01.043Z,20.40
2019-01-11T05:17:29.396Z,19.40
2019-01-11T05:19:57.743Z,20.60
2019-01-11T05:22:26.101Z,16.17
2019-01-11T05:24:54.460Z,38.20
2019-01-11T05:27:22.889Z,33.57
2019-01-11T05:29:51.208Z,37.70
2019-01-11T05:32:19.567Z,24.13
2019-01-11T05:34:47.943Z,27.37
2019-01-11T05:37:16.559Z,28.03
2019-01-11T05:39:44.906Z,35.17
2019-01-11T05:42:13.810Z,24.40
2019-01-11T05:44:42.137Z,20.53
2019-01-11T05:47:10.483Z,25.90
2019-01-11T05:49:38.824Z,25.60
2019-01-11T05:52:07.276Z,23.03
2019-01-11T05:54:35.620Z,20.53
2019-01-11T05:57:04.228Z,16.93
2019-01-11T05:59:32.593Z,19.63
2019-01-11T06:02:00.943Z,19.13
2019-01-11T06:04:32.814Z,20.17
2019-01-11T06:07:03.859Z,20.17
2019-01-11T06:09:32.226Z,21.50
2019-01-11T06:12:00.561Z,25.37
2019-01-11T06:14:28.880Z,24.18
2019-01-11T06:16:57.309Z,21.50
2019-01-11T06:19:25.670Z,22.58
2019-01-11T06:21:54.114Z,21.80
2019-01-11T06:24:22.436Z,23.67
2019-01-11T06:26:50.808Z,27.67
2019-01-11T06:29:19.277Z,25.03
2019-01-11T06:31:47.592Z,28.80
2019-01-11T06:34:16.076Z,24.17
2019-01-11T06:36:44.434Z,22.10
2019-01-11T06:39:13.275Z,23.50
2019-01-11T06:41:41.653Z,27.55
2019-01-11T06:44:10.027Z,28.80
2019-01-11T06:46:38.396Z,24.43
2019-01-11T06:49:06.740Z,30.23
2019-01-11T06:51:35.087Z,23.73
2019-01-11T06:54:03.511Z,26.60
2019-01-11T06:56:31.857Z,30.10
2019-01-11T06:59:00.226Z,26.90
2019-01-11T07:01:28.607Z,31.82
2019-01-11T07:03:56.946Z,37.65
2019-01-11T07:06:25.303Z,26.17
2019-01-11T07:08:53.649Z,29.53
2019-01-11T07:11:21.974Z,26.10
2019-01-11T07:13:50.351Z,27.65
2019-01-11T07:16:18.715Z,31.53
2019-01-11T07:18:47.138Z,31.17
2019-01-11T07:21:16.116Z,30.00
2019-01-11T07:23:44.465Z,25.57
2019-01-11T07:26:12.885Z,31.03
2019-01-11T07:28:41.276Z,27.67
2019-01-11T07:31:10.122Z,32.40
2019-01-11T07:33:38.481Z,30.88
2019-01-11T07:36:09.371Z,32.00
2019-01-11T07:38:37.730Z,31.47
2019-01-11T07:41:06.102Z,27.87
2019-01-11T07:43:34.527Z,27.53
2019-01-11T07:46:02.944Z,28.98
2019-01-11T07:48:31.297Z,32.87
2019-01-11T07:50:59.659Z,29.47
2019-01-11T07:53:27.968Z,31.67
2019-01-11T07:55:56.557Z,28.47
2019-01-11T07:58:24.881Z,30.40
2019-01-11T08:00:53.279Z,25.17
2019-01-11T08:03:21.581Z,27.03
2019-01-11T08:05:50.032Z,29.63
2019-01-11T08:08:18.368Z,31.70
2019-01-11T08:10:46.730Z,24.53
2019-01-11T08:13:15.073Z,27.27
2019-01-11T08:15:43.437Z,27.30
2019-01-11T08:18:11.771Z,23.42
2019-01-11T08:20:40.133Z,29.43
2019-01-11T08:23:08.692Z,23.37
2019-01-11T08:25:37.051Z,35.57
2019-01-11T08:28:05.544Z,26.27
2019-01-11T08:30:33.901Z,25.53
2019-01-11T08:33:02.251Z,25.63
2019-01-11T08:35:30.737Z,23.77
2019-01-11T08:37:59.641Z,23.95
2019-01-11T08:40:27.980Z,22.10
2019-01-11T08:42:56.317Z,27.20
2019-01-11T08:45:24.678Z,25.97
2019-01-11T08:47:53.005Z,25.00
2019-01-11T08:50:21.770Z,23.77
2019-01-11T08:52:50.365Z,25.30
2019-01-11T08:55:19.961Z,29.23
2019-01-11T08:57:48.325Z,23.45
2019-01-11T09:00:17.053Z,24.52
2019-01-11T09:02:45.438Z,24.50
2019-01-11T09:05:13.789Z,25.80
2019-01-11T09:07:42.378Z,21.67
2019-01-11T09:10:13.969Z,22.27
2019-01-11T09:12:42.380Z,23.50
2019-01-11T09:15:11.531Z,22.10
2019-01-11T09:17:44.533Z,22.13
2019-01-11T09:20:13.213Z,29.47
2019-01-11T09:22:41.560Z,18.25
2019-01-11T09:25:10.256Z,23.57
2019-01-11T09:27:38.617Z,23.03
2019-01-11T09:30:10.439Z,21.37
2019-01-11T09:32:39.539Z,19.23
2019-01-11T09:35:08.315Z,19.90
2019-01-11T09:37:36.677Z,15.55
2019-01-11T09:40:07.277Z,20.87
2019-01-11T09:42:35.695Z,22.00
2019-01-11T09:45:06.298Z,23.60
2019-01-11T09:47:34.741Z,16.53
2019-01-11T09:50:03.362Z,18.10
2019-01-11T09:52:31.722Z,16.53
2019-01-11T09:55:00.187Z,21.87
2019-01-11T09:57:28.606Z,19.82
2019-01-11T09:59:56.950Z,20.50
2019-01-11T10:02:29.226Z,17.50
2019-01-11T10:04:57.594Z,20.00
2019-01-11T10:07:26.925Z,17.80
2019-01-11T10:09:55.362Z,19.42
2019-01-11T10:12:24.159Z,20.37
2019-01-11T10:14:52.526Z,21.33
2019-01-11T10:17:20.855Z,23.03
2019-01-11T10:19:49.268Z,27.37
2019-01-11T10:22:17.685Z,18.60
2019-01-11T10:24:46.101Z,19.50
2019-01-11T10:27:14.446Z,20.80
2019-01-11T10:29:42.817Z,17.40
2019-01-11T10:32:11.159Z,23.60
2019-01-11T10:34:39.578Z,22.10
2019-01-11T10:37:07.915Z,21.87
2019-01-11T10:39:36.274Z,23.47
2019-01-11T10:42:04.814Z,21.70
2019-01-11T10:44:33.177Z,20.20
2019-01-11T10:47:01.549Z,25.10
2019-01-11T10:49:29.934Z,26.85
2019-01-11T10:51:58.261Z,22.33
2019-01-11T10:54:29.362Z,24.07
2019-01-11T10:56:57.691Z,23.92
2019-01-11T10:59:26.043Z,25.43
2019-01-11T11:01:55.222Z,24.30
2019-01-11T11:04:24.385Z,26.83
2019-01-11T11:06:53.378Z,22.97
2019-01-11T11:09:22.586Z,24.67
2019-01-11T11:11:51.544Z,21.50
2019-01-11T11:14:20.716Z,26.15
2019-01-11T11:16:49.656Z,27.07
2019-01-11T11:19:17.985Z,27.83
2019-01-11T11:21:46.322Z,25.40
2019-01-11T11:24:14.692Z,29.03
2019-01-11T11:26:43.036Z,25.90
2019-01-11T11:29:11.375Z,31.73
2019-01-11T11:31:39.735Z,23.07
2019-01-11T11:34:08.408Z,25.13
2019-01-11T11:36:36.808Z,25.03
2019-01-11T11:39:09.194Z,25.90
2019-01-11T11:41:37.611Z,24.60
2019-01-11T11:44:06.034Z,33.70
2019-01-11T11:46:34.372Z,24.30
2019-01-11T11:49:02.710Z,32.03
2019-01-11T11:51:31.167Z,25.48
2019-01-11T11:53:59.502Z,27.10
2019-01-11T11:56:27.914Z,27.77
2019-01-11T11:58:56.326Z,30.30
2019-01-11T12:01:24.749Z,22.77
2019-01-11T12:03:53.210Z,23.10
2019-01-11T12:06:21.557Z,23.30
2019-01-11T12:08:49.977Z,25.80
2019-01-11T12:11:18.326Z,28.57
2019-01-11T12:13:46.645Z,26.90
2019-01-11T12:16:14.981Z,24.47
2019-01-11T12:18:43.309Z,28.07
2019-01-11T12:21:11.667Z,25.57
2019-01-11T12:23:39.998Z,25.60
2019-01-11T12:26:08.977Z,21.73
2019-01-11T12:28:37.316Z,26.90
2019-01-11T12:31:05.673Z,28.03
2019-01-11T12:33:34.017Z,26.50
2019-01-11T12:36:02.372Z,25.80
2019-01-11T12:38:30.720Z,28.30
2019-01-11T12:40:59.086Z,24.80
2019-01-11T12:43:27.405Z,30.60
2019-01-11T12:45:55.825Z,26.10
2019-01-11T12:48:24.169Z,29.70
2019-01-11T12:50:52.546Z,28.43
2019-01-11T12:53:20.917Z,29.00
2019-01-11T12:55:49.345Z,25.60
2019-01-11T12:58:17.696Z,27.27
2019-01-11T13:00:46.124Z,28.35
2019-01-11T13:03:14.506Z,30.93
2019-01-11T13:05:42.917Z,29.97
2019-01-11T13:08:11.245Z,26.67
2019-01-11T13:10:39.611Z,24.30
2019-01-11T13:13:08.459Z,24.50
2019-01-11T13:15:36.738Z,23.52
2019-01-11T13:18:05.199Z,31.80
2019-01-11T13:20:33.512Z,25.23
2019-01-11T13:23:01.980Z,26.10
2019-01-11T13:25:32.326Z,27.27
2019-01-11T13:28:00.733Z,24.40
2019-01-11T13:30:29.157Z,29.80
2019-01-11T13:32:57.537Z,24.72
2019-01-11T13:35:25.861Z,26.90
2019-01-11T13:37:54.213Z,27.03
2019-01-11T13:40:23.199Z,24.60
2019-01-11T13:42:51.561Z,27.73
2019-01-11T13:45:20.134Z,31.00
2019-01-11T13:47:48.722Z,26.37
2019-01-11T13:50:20.657Z,30.63
2019-01-11T13:52:49.032Z,30.40
2019-01-11T13:55:17.377Z,26.87
2019-01-11T13:57:45.740Z,26.83
2019-01-11T14:00:14.744Z,26.87
2019-01-11T14:02:43.284Z,31.20
2019-01-11T14:05:12.220Z,25.47
2019-01-11T14:07:40.698Z,25.95
2019-01-11T14:10:10.155Z,31.60
2019-01-11T14:12:38.498Z,28.15
2019-01-11T14:15:10.538Z,27.85
2019-01-11T14:17:38.956Z,25.33
2019-01-11T14:20:10.181Z,30.88
2019-01-11T14:22:38.750Z,27.20
2019-01-11T14:25:09.946Z,26.97
2019-01-11T14:27:38.302Z,32.60
2019-01-11T14:30:11.124Z,30.73
2019-01-11T14:32:39.470Z,30.90
2019-01-11T14:35:08.550Z,38.80
2019-01-11T14:37:36.934Z,28.87
2019-01-11T14:40:10.156Z,36.70
2019-01-11T14:42:38.477Z,29.37
2019-01-11T14:45:10.925Z,31.50
2019-01-11T14:47:39.330Z,31.23
2019-01-11T14:50:10.983Z,33.43
2019-01-11T14:52:39.389Z,32.77
2019-01-11T14:55:08.017Z,33.77
2019-01-11T14:57:36.453Z,30.50
2019-01-11T15:00:08.415Z,36.03
2019-01-11T15:02:36.737Z,33.97
2019-01-11T15:05:07.227Z,36.57
2019-01-11T15:07:35.530Z,32.70
2019-01-11T15:10:07.546Z,30.97
2019-01-11T15:12:35.854Z,32.10
2019-01-11T15:15:06.029Z,28.80
2019-01-11T15:17:34.357Z,29.80
2019-01-11T15:20:04.722Z,32.77
2019-01-11T15:22:33.070Z,27.83
2019-01-11T15:25:01.780Z,30.10
2019-01-11T15:27:30.084Z,28.50
2019-01-11T15:29:58.421Z,30.70
2019-01-11T15:32:26.762Z,32.13
2019-01-11T15:34:55.194Z,30.10
2019-01-11T15:37:23.524Z,32.20
2019-01-11T15:39:51.880Z,29.40
2019-01-11T15:42:20.212Z,26.57
2019-01-11T15:44:48.905Z,28.87
2019-01-11T15:47:17.413Z,27.97
2019-01-11T15:49:45.778Z,33.43
2019-01-11T15:52:14.109Z,30.77
2019-01-11T15:54:42.471Z,33.87
2019-01-11T15:57:11.044Z,31.07
2019-01-11T15:59:45.009Z,30.57
2019-01-11T16:02:13.418Z,31.30
2019-01-11T16:04:41.706Z,30.85
2019-01-11T16:07:10.533Z,34.70
2019-01-11T16:09:42.685Z,32.97
2019-01-11T16:12:11.205Z,32.38
2019-01-11T16:14:44.926Z,29.53
2019-01-11T16:17:17.040Z,30.33
2019-01-11T16:19:45.472Z,33.83
2019-01-11T16:22:14.582Z,36.20
2019-01-11T16:24:42.925Z,31.20
2019-01-11T16:27:11.341Z,33.10
2019-01-11T16:29:39.692Z,28.53
2019-01-11T16:32:08.152Z,34.97
2019-01-11T16:34:36.589Z,31.90
2019-01-11T16:37:04.929Z,36.35
2019-01-11T16:39:33.270Z,30.43
2019-01-11T16:42:01.625Z,36.50
2019-01-11T16:44:30.127Z,34.03
2019-01-11T16:46:58.495Z,32.23
2019-01-11T16:49:26.826Z,32.70
2019-01-11T16:51:55.188Z,27.53
2019-01-11T16:54:23.545Z,30.43
2019-01-11T16:56:51.896Z,29.30
2019-01-11T16:59:20.213Z,30.80
2019-01-11T17:01:48.545Z,30.33
2019-01-11T17:04:16.906Z,26.90
2019-01-11T17:06:45.291Z,31.87
2019-01-11T17:09:14.383Z,27.83
2019-01-11T17:11:42.788Z,31.23
2019-01-11T17:14:11.178Z,34.33
2019-01-11T17:16:39.529Z,36.47
2019-01-11T17:19:07.905Z,32.40
2019-01-11T17:21:36.300Z,34.03
2019-01-11T17:24:05.019Z,28.57
2019-01-11T17:26:33.454Z,33.17
2019-01-11T17:29:01.822Z,31.13
2019-01-11T17:31:30.258Z,33.78
2019-01-11T17:33:58.593Z,31.53
2019-01-11T17:36:26.955Z,33.27
2019-01-11T17:38:55.332Z,26.90
2019-01-11T17:41:23.708Z,34.03
2019-01-11T17:43:52.040Z,32.93
2019-01-11T17:46:20.378Z,29.63
2019-01-11T17:48:48.781Z,32.55
2019-01-11T17:51:17.171Z,31.10
2019-01-11T17:53:45.512Z,33.23
2019-01-11T17:56:14.572Z,37.33
2019-01-11T17:58:42.963Z,43.23
2019-01-11T18:01:11.288Z,37.33
2019-01-11T18:03:39.653Z,31.13
2019-01-11T18:06:07.987Z,37.90
2019-01-11T18:08:36.366Z,30.80
2019-01-11T18:11:04.698Z,34.00
2019-01-11T18:13:33.082Z,28.67
2019-01-11T18:16:01.400Z,27.83
2019-01-11T18:18:29.762Z,28.45
2019-01-11T18:20:58.189Z,26.37
2019-01-11T18:23:26.571Z,25.50
2019-01-11T18:25:54.897Z,30.33
2019-01-11T18:28:23.388Z,27.93
2019-01-11T18:30:51.766Z,28.80
2019-01-11T18:33:20.109Z,31.30
2019-01-11T18:35:48.467Z,24.00
2019-01-11T18:38:16.821Z,28.27
2019-01-11T18:40:45.251Z,27.40
2019-01-11T18:43:14.093Z,26.00
2019-01-11T18:46:10.782Z,31.27
2019-01-11T18:48:39.210Z,28.30
2019-01-11T18:51:07.626Z,26.23
2019-01-11T18:53:35.962Z,29.70
2019-01-11T18:56:05.585Z,28.90
2019-01-11T18:58:34.157Z,30.10
2019-01-11T19:01:02.540Z,28.20
2019-01-11T19:03:30.951Z,29.03
2019-01-11T19:05:59.962Z,29.70
2019-01-11T19:08:28.340Z,26.57
2019-01-11T19:10:56.777Z,29.60
2019-01-11T19:13:25.118Z,29.90
2019-01-11T19:15:53.518Z,28.60
2019-01-11T19:18:21.847Z,28.20
2019-01-11T19:20:50.211Z,28.57
2019-01-11T19:23:20.551Z,25.93
2019-01-11T19:25:48.905Z,28.57
2019-01-11T19:28:17.312Z,27.67
2019-01-11T19:30:46.001Z,29.77
2019-01-11T19:33:14.746Z,26.60
2019-01-11T19:35:43.167Z,30.63
2019-01-11T19:38:11.768Z,31.60
2019-01-11T19:40:40.153Z,29.77
2019-01-11T19:43:08.504Z,28.63
2019-01-11T19:45:36.935Z,31.50
2019-01-11T19:48:05.429Z,30.63
2019-01-11T19:50:33.746Z,27.60
2019-01-11T19:53:02.162Z,32.07
2019-01-11T19:55:30.598Z,29.50
2019-01-11T19:57:58.957Z,27.53
2019-01-11T20:00:27.546Z,27.47
2019-01-11T20:02:55.983Z,27.85
2019-01-11T20:05:24.543Z,28.63
2019-01-11T20:07:52.997Z,29.75
2019-01-11T20:10:24.620Z,25.60
2019-01-11T20:12:53.213Z,30.90
2019-01-11T20:15:21.774Z,26.80
2019-01-11T20:17:50.484Z,28.10
2019-01-11T20:20:19.082Z,29.20
2019-01-11T20:22:47.509Z,26.90
2019-01-11T20:25:19.417Z,27.30
2019-01-11T20:27:47.938Z,27.43
2019-01-11T20:30:18.884Z,26.83
2019-01-11T20:32:47.310Z,33.40
2019-01-11T20:35:16.726Z,27.30
2019-01-11T20:37:45.631Z,26.50
2019-01-11T20:40:15.577Z,28.10
2019-01-11T20:42:44.244Z,27.55
2019-01-11T20:45:14.998Z,37.17
2019-01-11T20:47:43.460Z,26.40
2019-01-11T20:50:15.782Z,24.27
2019-01-11T20:52:44.131Z,26.97
2019-01-11T20:55:13.452Z,27.40
2019-01-11T20:57:41.946Z,27.00
2019-01-11T21:00:14.135Z,29.90
2019-01-11T21:02:42.587Z,29.60
2019-01-11T21:05:11.727Z,27.30
2019-01-11T21:07:40.097Z,24.07
2019-01-11T21:10:10.763Z,25.83
2019-01-11T21:12:39.171Z,26.97
2019-01-11T21:15:11.657Z,26.20
2019-01-11T21:17:39.999Z,24.60
2019-01-11T21:20:11.397Z,27.30
2019-01-11T21:22:39.820Z,25.43
2019-01-11T21:25:10.693Z,23.62
2019-01-11T21:27:39.038Z,25.43
2019-01-11T21:30:11.449Z,28.03
2019-01-11T21:32:39.772Z,27.87
2019-01-11T21:35:08.509Z,28.80
2019-01-11T21:37:36.850Z,24.47
2019-01-11T21:40:07.951Z,27.77
2019-01-11T21:42:36.395Z,25.20
2019-01-11T21:45:07.300Z,28.23
2019-01-11T21:47:35.841Z,23.65
2019-01-11T21:50:06.805Z,25.93
2019-01-11T21:52:37.837Z,26.50
2019-01-11T21:55:07.900Z,25.47
2019-01-11T21:57:36.263Z,24.50
2019-01-11T22:00:09.185Z,27.42
2019-01-11T22:02:37.566Z,26.40
2019-01-11T22:05:06.198Z,29.67
2019-01-11T22:07:34.665Z,25.88
2019-01-11T22:10:05.531Z,26.37
2019-01-11T22:12:33.910Z,28.90
2019-01-11T22:15:03.238Z,24.63
2019-01-11T22:17:31.557Z,25.70
2019-01-11T22:19:59.898Z,22.87
2019-01-11T22:22:28.237Z,25.20
2019-01-11T22:24:56.901Z,26.47
2019-01-11T22:27:25.697Z,26.52
2019-01-11T22:29:54.130Z,28.37
2019-01-11T22:32:22.725Z,26.77
2019-01-11T22:34:51.168Z,25.97
2019-01-11T22:37:19.534Z,26.10
2019-01-11T22:39:47.854Z,28.30
2019-01-11T22:42:16.229Z,23.27
2019-01-11T22:44:44.580Z,22.47
2019-01-11T22:47:13.335Z,26.27
2019-01-11T22:49:41.662Z,23.57
2019-01-11T22:52:10.025Z,26.00
2019-01-11T22:54:38.390Z,21.60
2019-01-11T22:57:06.965Z,21.35
2019-01-11T22:59:35.297Z,22.40
2019-01-11T23:02:05.614Z,27.33
2019-01-11T23:04:33.942Z,29.82
2019-01-11T23:07:05.837Z,24.93
2019-01-11T23:09:37.950Z,26.63
2019-01-11T23:12:11.770Z,23.77
2019-01-11T23:14:40.098Z,23.53
2019-01-11T23:17:12.385Z,24.13
2019-01-11T23:19:40.810Z,21.97
2019-01-11T23:22:09.148Z,24.60
2019-01-11T23:24:37.497Z,26.60
2019-01-11T23:27:05.926Z,26.73
2019-01-11T23:29:34.248Z,22.20
2019-01-11T23:32:02.602Z,22.17
2019-01-11T23:34:30.941Z,24.30
2019-01-11T23:36:59.281Z,23.70
2019-01-11T23:39:27.602Z,22.82
2019-01-11T23:41:55.929Z,21.07
2019-01-11T23:44:24.260Z,25.50
2019-01-11T23:46:52.596Z,25.30
2019-01-11T23:49:20.969Z,21.33
2019-01-11T23:51:49.415Z,21.83
2019-01-11T23:54:24.329Z,21.37
2019-01-11T23:56:48.102Z,26.03
2019-01-11T23:59:16.581Z,22.82
